createdAt,value
2023-03-16T00:00:32.106Z,2.22
2023-03-16T00:03:39.416Z,1.38
2023-03-16T00:06:48.730Z,2.07
2023-03-16T00:09:51.608Z,2.33
2023-03-16T00:12:55.500Z,2.00
2023-03-16T00:16:00.852Z,2.30
2023-03-16T00:19:03.888Z,1.67
2023-03-16T00:22:07.527Z,1.97
2023-03-16T00:25:12.805Z,3.23
2023-03-16T00:28:19.199Z,2.08
2023-03-16T00:31:25.216Z,2.38
2023-03-16T00:34:30.193Z,1.65
2023-03-16T00:37:33.561Z,2.23
2023-03-16T00:40:36.518Z,2.50
2023-03-16T00:43:42.363Z,1.70
2023-03-16T00:46:45.118Z,1.88
2023-03-16T00:49:47.848Z,1.30
2023-03-16T00:52:53.740Z,1.97
2023-03-16T00:55:56.508Z,1.83
2023-03-16T00:59:00.314Z,2.03
2023-03-16T01:02:03.055Z,2.40
2023-03-16T01:05:06.440Z,1.88
2023-03-16T01:08:09.733Z,1.67
2023-03-16T01:11:18.721Z,2.43
2023-03-16T01:14:22.781Z,1.88
2023-03-16T01:17:25.576Z,2.47
2023-03-16T01:20:28.767Z,1.77
2023-03-16T01:23:35.742Z,3.47
2023-03-16T01:26:38.598Z,2.13
2023-03-16T01:29:43.796Z,2.08
2023-03-16T01:32:47.770Z,2.05
2023-03-16T01:35:58.481Z,2.17
2023-03-16T01:39:06.949Z,1.70
2023-03-16T01:42:18.168Z,1.93
2023-03-16T01:45:58.468Z,1.67
2023-03-16T01:49:12.545Z,2.63
2023-03-16T01:52:25.066Z,2.42
2023-03-16T01:55:27.902Z,2.43
2023-03-16T01:58:31.900Z,2.20
2023-03-16T02:01:35.525Z,2.65
2023-03-16T02:04:57.795Z,2.03
2023-03-16T02:08:02.902Z,1.40
2023-03-16T02:11:08.694Z,1.60
2023-03-16T02:14:19.132Z,2.20
2023-03-16T02:17:25.341Z,1.88
2023-03-16T02:20:55.286Z,1.52
2023-03-16T02:24:00.227Z,1.88
2023-03-16T02:27:13.580Z,1.87
2023-03-16T02:30:19.916Z,1.37
2023-03-16T02:33:35.080Z,1.77
2023-03-16T02:36:39.459Z,1.80
2023-03-16T02:39:44.261Z,2.20
2023-03-16T02:43:02.955Z,2.23
2023-03-16T02:46:08.953Z,2.43
2023-03-16T02:49:37.943Z,1.88
2023-03-16T02:52:41.304Z,2.17
2023-03-16T02:55:49.015Z,1.48
2023-03-16T02:58:57.571Z,2.30
2023-03-16T03:02:04.745Z,2.30
2023-03-16T03:05:07.714Z,2.45
2023-03-16T03:08:10.688Z,1.10
2023-03-16T03:11:14.867Z,1.20
2023-03-16T03:14:17.664Z,1.87
2023-03-16T03:17:30.215Z,1.97
2023-03-16T03:20:33.846Z,2.13
2023-03-16T03:23:36.574Z,2.47
2023-03-16T03:26:39.439Z,1.77
2023-03-16T03:29:47.598Z,1.37
2023-03-16T03:32:52.513Z,2.23
2023-03-16T03:35:57.956Z,1.77
2023-03-16T03:39:05.268Z,1.80
2023-03-16T03:42:10.123Z,1.20
2023-03-16T03:45:14.115Z,1.60
2023-03-16T03:48:16.872Z,2.63
2023-03-16T03:51:19.667Z,2.03
2023-03-16T03:54:32.030Z,1.50
2023-03-16T03:57:39.224Z,1.10
2023-03-16T04:00:41.985Z,1.63
2023-03-16T04:03:45.296Z,1.80
2023-03-16T04:06:51.297Z,2.08
2023-03-16T04:09:54.138Z,1.77
2023-03-16T04:13:03.012Z,1.38
2023-03-16T04:16:09.658Z,2.13
2023-03-16T04:19:18.194Z,1.77
2023-03-16T04:22:24.672Z,1.63
2023-03-16T04:25:27.970Z,1.65
2023-03-16T04:28:32.815Z,1.42
2023-03-16T04:31:35.619Z,1.47
2023-03-16T04:34:43.021Z,0.97
2023-03-16T04:37:47.948Z,1.38
2023-03-16T04:40:51.691Z,0.98
2023-03-16T04:43:58.952Z,2.13
2023-03-16T04:47:02.804Z,1.47
2023-03-16T04:50:14.602Z,1.40
2023-03-16T04:53:19.543Z,1.45
2023-03-16T04:56:30.234Z,2.00
2023-03-16T04:59:39.369Z,1.95
2023-03-16T05:02:52.140Z,2.20
2023-03-16T05:05:55.425Z,0.80
2023-03-16T05:09:01.471Z,2.33
2023-03-16T05:12:05.974Z,1.70
2023-03-16T05:15:09.793Z,1.75
2023-03-16T05:18:17.458Z,1.97
2023-03-16T05:21:20.504Z,2.30
2023-03-16T05:24:33.628Z,1.42
2023-03-16T05:27:36.375Z,1.50
2023-03-16T05:30:45.963Z,1.70
2023-03-16T05:33:54.422Z,1.57
2023-03-16T05:37:00.471Z,1.70
2023-03-16T05:40:17.325Z,1.88
2023-03-16T05:43:26.286Z,1.63
2023-03-16T05:46:30.660Z,1.98
2023-03-16T05:49:33.944Z,1.53
2023-03-16T05:52:41.275Z,2.00
2023-03-16T05:55:54.517Z,1.92
2023-03-16T05:58:57.675Z,2.10
2023-03-16T06:02:02.359Z,1.48
2023-03-16T06:05:05.619Z,1.93
2023-03-16T06:08:09.453Z,1.40
2023-03-16T06:11:14.500Z,1.90
2023-03-16T06:14:23.320Z,2.00
2023-03-16T06:17:27.347Z,1.70
2023-03-16T06:20:30.603Z,1.43
2023-03-16T06:23:34.194Z,1.70
2023-03-16T06:26:37.919Z,1.98
2023-03-16T06:29:43.637Z,1.52
2023-03-16T06:32:47.036Z,1.95
2023-03-16T06:35:51.862Z,1.43
2023-03-16T06:39:04.858Z,1.83
2023-03-16T06:42:14.775Z,1.50
2023-03-16T06:45:21.528Z,4.88
2023-03-16T06:48:25.784Z,3.25
2023-03-16T06:51:29.970Z,4.33
2023-03-16T06:54:35.163Z,5.77
2023-03-16T06:57:38.564Z,3.35
2023-03-16T07:00:42.306Z,4.50
2023-03-16T07:03:45.250Z,3.15
2023-03-16T07:06:57.900Z,2.73
2023-03-16T07:10:00.681Z,3.53
2023-03-16T07:13:10.111Z,5.35
2023-03-16T07:16:14.316Z,3.45
2023-03-16T07:19:17.186Z,6.30
2023-03-16T07:22:22.251Z,4.70
2023-03-16T07:25:25.471Z,2.40
2023-03-16T07:28:30.558Z,3.42
2023-03-16T07:31:36.597Z,7.13
2023-03-16T07:34:44.842Z,3.83
2023-03-16T07:37:49.570Z,5.73
2023-03-16T07:40:52.698Z,4.00
2023-03-16T07:43:59.110Z,4.20
2023-03-16T07:47:02.506Z,3.58
2023-03-16T07:50:08.958Z,4.47
2023-03-16T07:53:12.348Z,5.27
2023-03-16T07:56:17.457Z,7.43
2023-03-16T07:59:23.537Z,4.80
2023-03-16T08:02:34.152Z,6.10
2023-03-16T08:05:37.336Z,4.70
2023-03-16T08:08:47.035Z,7.40
2023-03-16T08:12:01.644Z,4.00
2023-03-16T08:15:12.524Z,4.28
2023-03-16T08:18:16.585Z,8.43
2023-03-16T08:21:20.527Z,15.93
2023-03-16T08:24:28.720Z,6.43
2023-03-16T08:27:35.693Z,11.37
2023-03-16T08:34:20.703Z,3.97
2023-03-16T08:37:24.327Z,9.18
2023-03-16T08:40:30.341Z,8.50
2023-03-16T08:43:35.640Z,5.77
2023-03-16T08:46:39.425Z,7.28
2023-03-16T08:49:46.412Z,7.43
2023-03-16T08:52:52.284Z,6.30
2023-03-16T08:56:06.441Z,6.37
2023-03-16T08:59:23.240Z,5.17
2023-03-16T09:02:31.722Z,7.15
2023-03-16T09:05:34.681Z,8.00
2023-03-16T09:08:39.286Z,6.40
2023-03-16T09:11:42.318Z,4.13
2023-03-16T09:14:46.131Z,6.27
2023-03-16T09:17:48.925Z,6.07
2023-03-16T09:20:52.285Z,6.65
2023-03-16T09:23:56.409Z,6.45
2023-03-16T09:27:00.236Z,3.23
2023-03-16T09:30:08.288Z,4.43
2023-03-16T09:33:14.695Z,3.38
2023-03-16T09:36:21.115Z,6.70
2023-03-16T09:39:28.296Z,5.60
2023-03-16T09:42:46.572Z,8.57
2023-03-16T09:46:04.221Z,8.27
2023-03-16T09:49:07.153Z,5.90
2023-03-16T09:52:59.385Z,7.70
2023-03-16T09:56:16.670Z,7.47
2023-03-16T09:59:20.121Z,6.87
2023-03-16T10:02:49.913Z,7.07
2023-03-16T10:06:01.005Z,5.90
2023-03-16T10:09:12.616Z,6.57
2023-03-16T10:12:16.774Z,7.55
2023-03-16T10:15:27.273Z,5.70
2023-03-16T10:18:38.958Z,11.20
2023-03-16T10:21:42.054Z,6.10
2023-03-16T10:25:14.489Z,8.02
2023-03-16T10:28:37.785Z,5.78
2023-03-16T10:31:42.218Z,4.70
2023-03-16T10:34:53.337Z,6.53
2023-03-16T10:37:57.376Z,11.10
2023-03-16T10:41:00.849Z,6.15
2023-03-16T10:44:41.991Z,7.45
2023-03-16T10:47:44.752Z,5.43
2023-03-16T10:50:57.379Z,6.50
2023-03-16T10:54:16.419Z,6.78
2023-03-16T10:57:37.669Z,7.20
2023-03-16T11:00:43.418Z,8.82
2023-03-16T11:03:55.544Z,7.93
2023-03-16T11:06:58.902Z,9.30
2023-03-16T11:10:02.007Z,8.77
2023-03-16T11:13:17.822Z,9.27
2023-03-16T11:16:47.860Z,7.78
2023-03-16T11:19:57.890Z,7.40
2023-03-16T11:23:01.748Z,6.47
2023-03-16T11:26:11.058Z,6.90
2023-03-16T11:29:23.004Z,6.72
2023-03-16T11:32:33.496Z,9.20
2023-03-16T11:35:58.010Z,7.33
2023-03-16T11:39:32.098Z,7.60
2023-03-16T11:43:00.032Z,7.47
2023-03-16T11:46:23.588Z,6.18
2023-03-16T11:49:33.110Z,6.32
2023-03-16T11:52:50.434Z,5.90
2023-03-16T11:56:03.632Z,6.17
2023-03-16T11:59:19.541Z,7.13
2023-03-16T12:02:39.091Z,6.53
2023-03-16T12:06:17.074Z,5.20
2023-03-16T12:09:25.228Z,4.47
2023-03-16T12:12:40.710Z,6.67
2023-03-16T12:15:57.182Z,5.18
2023-03-16T12:19:07.255Z,4.03
2023-03-16T12:22:21.775Z,6.55
2023-03-16T12:25:32.373Z,5.10
2023-03-16T12:28:36.841Z,5.57
2023-03-16T12:32:05.901Z,4.47
2023-03-16T12:35:26.476Z,5.28
2023-03-16T12:38:46.766Z,4.65
2023-03-16T12:42:10.907Z,7.63
2023-03-16T12:45:32.132Z,9.30
2023-03-16T12:48:42.937Z,6.90
2023-03-16T12:51:46.191Z,10.38
2023-03-16T12:55:21.546Z,13.23
2023-03-16T12:58:27.682Z,7.50
2023-03-16T13:01:38.541Z,8.33
2023-03-16T13:04:44.842Z,7.18
2023-03-16T13:07:49.578Z,8.98
2023-03-16T13:11:09.403Z,7.78
2023-03-16T13:14:18.017Z,6.23
2023-03-16T13:17:20.798Z,10.90
2023-03-16T13:20:31.105Z,10.15
2023-03-16T13:23:54.928Z,9.32
2023-03-16T13:27:06.261Z,10.18
2023-03-16T13:30:19.019Z,9.13
2023-03-16T13:33:28.492Z,8.50
2023-03-16T13:36:32.942Z,9.13
2023-03-16T13:39:36.075Z,10.35
2023-03-16T13:42:38.938Z,7.25
2023-03-16T13:45:46.530Z,8.03
2023-03-16T13:48:50.484Z,12.63
2023-03-16T13:51:53.946Z,8.77
2023-03-16T13:54:58.412Z,4.60
2023-03-16T13:58:02.008Z,6.63
2023-03-16T14:01:24.888Z,12.57
2023-03-16T14:04:32.519Z,5.37
2023-03-16T14:07:39.540Z,7.05
2023-03-16T14:10:43.834Z,5.65
2023-03-16T14:13:54.118Z,7.47
2023-03-16T14:17:12.400Z,8.40
2023-03-16T14:20:21.545Z,6.87
2023-03-16T14:23:28.730Z,5.32
2023-03-16T14:26:43.218Z,7.18
2023-03-16T14:29:50.960Z,6.03
2023-03-16T14:32:57.029Z,7.70
2023-03-16T14:36:10.306Z,7.40
2023-03-16T14:39:21.403Z,8.68
2023-03-16T14:42:29.637Z,6.60
2023-03-16T14:45:38.029Z,5.55
2023-03-16T14:48:41.225Z,6.40
2023-03-16T14:51:46.047Z,7.13
2023-03-16T14:54:49.603Z,5.85
2023-03-16T14:57:53.350Z,5.28
2023-03-16T15:00:56.334Z,6.18
2023-03-16T15:03:59.337Z,6.97
2023-03-16T15:07:21.655Z,6.17
2023-03-16T15:10:34.574Z,5.15
2023-03-16T15:13:38.223Z,4.80
2023-03-16T15:16:45.590Z,8.43
2023-03-16T15:19:50.558Z,5.10
2023-03-16T15:22:53.918Z,5.00
2023-03-16T15:26:03.017Z,6.07
2023-03-16T15:29:11.822Z,4.85
2023-03-16T15:32:18.214Z,5.13
2023-03-16T15:35:21.480Z,4.60
2023-03-16T15:38:29.839Z,6.77
2023-03-16T15:41:46.740Z,5.60
2023-03-16T15:44:50.408Z,5.95
2023-03-16T15:47:53.992Z,8.63
2023-03-16T15:51:01.129Z,5.37
2023-03-16T15:54:06.395Z,5.20
2023-03-16T15:57:11.156Z,5.32
2023-03-16T16:00:41.168Z,5.43
2023-03-16T16:03:44.936Z,7.72
2023-03-16T16:06:48.934Z,6.43
2023-03-16T16:09:57.178Z,5.17
2023-03-16T16:13:01.634Z,6.32
2023-03-16T16:16:04.703Z,7.25
2023-03-16T16:19:13.218Z,6.82
2023-03-16T16:22:16.642Z,4.07
2023-03-16T16:25:24.814Z,5.93
2023-03-16T16:28:31.753Z,5.00
2023-03-16T16:31:34.714Z,5.30
2023-03-16T16:34:37.671Z,6.40
2023-03-16T16:37:40.556Z,5.30
2023-03-16T16:40:46.258Z,4.23
2023-03-16T16:43:50.386Z,6.95
2023-03-16T16:46:54.275Z,5.65
2023-03-16T16:49:58.173Z,4.90
2023-03-16T16:53:01.241Z,5.13
2023-03-16T16:56:05.567Z,4.53
2023-03-16T16:59:18.937Z,5.65
2023-03-16T17:02:33.311Z,7.57
2023-03-16T17:05:36.583Z,5.82
2023-03-16T17:08:39.706Z,6.67
2023-03-16T17:11:45.926Z,7.23
2023-03-16T17:14:49.877Z,5.97
2023-03-16T17:17:56.609Z,5.20
2023-03-16T17:21:00.823Z,5.88
2023-03-16T17:24:04.831Z,9.13
2023-03-16T17:27:11.726Z,6.40
2023-03-16T17:30:29.319Z,6.75
2023-03-16T17:33:32.461Z,7.97
2023-03-16T17:36:35.936Z,7.07
2023-03-16T17:39:40.072Z,6.33
2023-03-16T17:42:43.911Z,7.37
2023-03-16T17:45:50.035Z,8.18
2023-03-16T17:48:56.241Z,8.15
2023-03-16T17:52:00.251Z,7.07
2023-03-16T17:55:04.901Z,7.97
2023-03-16T17:58:26.245Z,6.60
2023-03-16T18:01:35.337Z,7.38
2023-03-16T18:04:39.374Z,8.30
2023-03-16T18:07:43.674Z,10.10
2023-03-16T18:10:50.415Z,8.47
2023-03-16T18:13:54.543Z,7.97
2023-03-16T18:16:59.720Z,7.68
2023-03-16T18:20:06.875Z,8.43
2023-03-16T18:23:24.752Z,7.80
2023-03-16T18:26:30.815Z,8.80
2023-03-16T18:29:35.791Z,8.43
2023-03-16T18:32:40.508Z,10.30
2023-03-16T18:35:45.377Z,8.00
2023-03-16T18:38:51.544Z,8.88
2023-03-16T18:41:55.031Z,10.67
2023-03-16T18:44:59.179Z,10.80
2023-03-16T18:48:02.877Z,8.75
2023-03-16T18:51:10.837Z,8.88
2023-03-16T18:54:39.117Z,10.70
2023-03-16T18:57:43.243Z,10.77
2023-03-16T19:00:55.001Z,9.97
2023-03-16T19:04:01.103Z,9.07
2023-03-16T19:07:11.084Z,9.45
2023-03-16T19:10:25.200Z,10.80
2023-03-16T19:13:29.325Z,9.10
2023-03-16T19:16:33.702Z,9.50
2023-03-16T19:19:37.852Z,8.95
2023-03-16T19:22:44.664Z,8.32
2023-03-16T19:25:50.076Z,9.93
2023-03-16T19:28:57.859Z,9.93
2023-03-16T19:32:03.708Z,8.83
2023-03-16T19:35:16.389Z,10.50
2023-03-16T19:38:22.971Z,9.00
2023-03-16T19:41:33.522Z,9.88
2023-03-16T19:44:38.169Z,8.53
2023-03-16T19:47:46.638Z,8.40
2023-03-16T19:50:51.500Z,8.90
2023-03-16T19:53:58.794Z,9.63
2023-03-16T19:57:13.820Z,8.50
2023-03-16T20:00:26.745Z,9.97
2023-03-16T20:03:34.376Z,10.07
2023-03-16T20:06:38.500Z,10.15
2023-03-16T20:09:42.603Z,7.05
2023-03-16T20:12:49.449Z,8.82
2023-03-16T20:15:53.594Z,9.53
2023-03-16T20:19:10.852Z,9.07
2023-03-16T20:22:21.413Z,9.00
2023-03-16T20:25:31.169Z,8.70
2023-03-16T20:28:38.062Z,8.52
2023-03-16T20:31:43.021Z,9.73
2023-03-16T20:34:47.269Z,10.33
2023-03-16T20:37:53.548Z,10.57
2023-03-16T20:40:58.763Z,9.60
2023-03-16T20:44:02.733Z,8.93
2023-03-16T20:47:06.466Z,10.60
2023-03-16T20:50:22.082Z,9.93
2023-03-16T20:53:25.797Z,9.23
2023-03-16T20:56:31.911Z,9.75
2023-03-16T20:59:35.306Z,9.32
2023-03-16T21:02:40.296Z,9.47
2023-03-16T21:05:43.765Z,9.70
2023-03-16T21:08:48.214Z,7.95
2023-03-16T21:11:53.133Z,10.40
2023-03-16T21:14:58.215Z,10.00
2023-03-16T21:18:08.707Z,9.90
2023-03-16T21:21:19.890Z,9.23
2023-03-16T21:24:24.069Z,8.27
2023-03-16T21:30:59.865Z,8.63
2023-03-16T21:34:06.026Z,9.30
2023-03-16T21:37:16.277Z,8.37
2023-03-16T21:40:22.814Z,9.23
2023-03-16T21:43:26.892Z,8.13
2023-03-16T21:46:30.050Z,8.15
2023-03-16T21:49:33.051Z,9.20
2023-03-16T21:52:36.649Z,7.43
2023-03-16T21:55:39.352Z,8.85
2023-03-16T21:58:43.480Z,8.32
2023-03-16T22:02:00.650Z,8.70
2023-03-16T22:05:27.176Z,8.43
2023-03-16T22:08:36.254Z,8.67
2023-03-16T22:11:39.299Z,9.30
2023-03-16T22:14:42.395Z,8.57
2023-03-16T22:17:45.120Z,9.23
2023-03-16T22:20:48.499Z,9.50
2023-03-16T22:23:51.730Z,8.73
2023-03-16T22:26:55.121Z,9.45
2023-03-16T22:29:57.985Z,7.80
2023-03-16T22:33:01.158Z,8.82
2023-03-16T22:36:13.958Z,9.53
2023-03-16T22:39:16.880Z,8.17
2023-03-16T22:42:19.811Z,8.70
2023-03-16T22:45:27.703Z,8.63
2023-03-16T22:48:31.531Z,8.68
2023-03-16T22:51:37.278Z,7.77
2023-03-16T22:54:43.927Z,7.77
2023-03-16T22:57:47.491Z,7.95
2023-03-16T23:00:50.862Z,11.05
2023-03-16T23:03:57.254Z,8.85
2023-03-16T23:07:03.390Z,7.73
2023-03-16T23:10:07.441Z,7.50
2023-03-16T23:13:16.263Z,8.27
2023-03-16T23:16:37.272Z,8.50
2023-03-16T23:19:40.130Z,7.82
2023-03-16T23:22:42.929Z,8.73
2023-03-16T23:25:47.369Z,7.20
2023-03-16T23:28:51.687Z,7.85
2023-03-16T23:31:54.882Z,7.97
2023-03-16T23:34:59.208Z,8.15
2023-03-16T23:38:02.159Z,7.57
2023-03-16T23:41:05.596Z,7.53
2023-03-16T23:44:13.483Z,7.97
2023-03-16T23:47:16.201Z,7.50
2023-03-16T23:50:24.558Z,8.45
2023-03-16T23:53:27.292Z,7.50
2023-03-16T23:56:30.095Z,7.83
2023-03-16T23:59:33.396Z,8.13
